sensor_id;sensor_type;location;lat;lon;timestamp;pressure;altitude;pressure_sealevel;temperature;humidity
20027;BME280;10174;42.688;23.344;2022-12-18T00:01:31;96117.00;;;5.89;90.46
20027;BME280;10174;42.688;23.344;2022-12-18T00:03:59;96109.03;;;5.83;90.98
20027;BME280;10174;42.688;23.344;2022-12-18T00:06:27;96119.91;;;5.81;90.80
20027;BME280;10174;42.688;23.344;2022-12-18T00:08:53;96113.91;;;5.93;91.00
20027;BME280;10174;42.688;23.344;2022-12-18T00:11:22;96001.50;;;5.18;90.50
20027;BME280;10174;42.688;23.344;2022-12-18T00:13:49;96109.44;;;5.86;89.94
20027;BME280;10174;42.688;23.344;2022-12-18T00:16:17;96119.13;;;5.74;90.19
20027;BME280;10174;42.688;23.344;2022-12-18T00:18:45;96113.63;;;5.69;90.54
20027;BME280;10174;42.688;23.344;2022-12-18T00:21:12;96131.69;;;5.60;89.94
20027;BME280;10174;42.688;23.344;2022-12-18T00:23:39;96084.84;;;5.39;90.25
20027;BME280;10174;42.688;23.344;2022-12-18T00:26:07;96131.72;;;5.53;90.62
20027;BME280;10174;42.688;23.344;2022-12-18T00:28:33;96054.19;;;5.16;90.98
20027;BME280;10174;42.688;23.344;2022-12-18T00:31:09;96132.16;;;5.50;90.49
20027;BME280;10174;42.688;23.344;2022-12-18T00:33:35;96136.22;;;5.60;89.74
20027;BME280;10174;42.688;23.344;2022-12-18T00:36:02;96144.88;;;5.48;90.41
20027;BME280;10174;42.688;23.344;2022-12-18T00:38:28;96136.25;;;5.46;89.41
20027;BME280;10174;42.688;23.344;2022-12-18T00:40:54;96141.16;;;5.49;89.45
20027;BME280;10174;42.688;23.344;2022-12-18T00:43:19;96149.44;;;5.34;90.28
20027;BME280;10174;42.688;23.344;2022-12-18T00:45:45;96153.16;;;5.27;90.93
20027;BME280;10174;42.688;23.344;2022-12-18T00:48:10;96152.09;;;5.28;90.23
20027;BME280;10174;42.688;23.344;2022-12-18T00:50:36;96121.22;;;5.00;90.09
20027;BME280;10174;42.688;23.344;2022-12-18T00:53:01;96158.47;;;5.20;89.67
20027;BME280;10174;42.688;23.344;2022-12-18T00:55:26;96144.56;;;5.18;89.84
20027;BME280;10174;42.688;23.344;2022-12-18T00:57:52;96139.66;;;5.02;89.86
20027;BME280;10174;42.688;23.344;2022-12-18T01:00:17;96154.41;;;5.04;90.71
20027;BME280;10174;42.688;23.344;2022-12-18T01:02:43;96148.69;;;4.94;89.83
20027;BME280;10174;42.688;23.344;2022-12-18T01:05:10;96180.03;;;4.98;89.64
20027;BME280;10174;42.688;23.344;2022-12-18T01:07:36;96172.44;;;4.95;89.93
20027;BME280;10174;42.688;23.344;2022-12-18T01:10:02;96142.97;;;4.70;89.63
20027;BME280;10174;42.688;23.344;2022-12-18T01:12:28;96157.31;;;4.76;90.48
20027;BME280;10174;42.688;23.344;2022-12-18T01:14:53;96174.09;;;4.90;90.29
20027;BME280;10174;42.688;23.344;2022-12-18T01:17:18;96191.13;;;4.89;90.18
20027;BME280;10174;42.688;23.344;2022-12-18T01:19:44;96191.72;;;4.91;90.67
20027;BME280;10174;42.688;23.344;2022-12-18T01:22:09;96191.72;;;4.91;89.93
20027;BME280;10174;42.688;23.344;2022-12-18T01:24:34;96189.25;;;4.89;90.01
20027;BME280;10174;42.688;23.344;2022-12-18T01:27:00;96168.78;;;4.70;89.64
20027;BME280;10174;42.688;23.344;2022-12-18T01:29:25;96188.84;;;4.86;89.75
20027;BME280;10174;42.688;23.344;2022-12-18T01:31:50;96172.47;;;4.62;90.24
20027;BME280;10174;42.688;23.344;2022-12-18T01:34:16;96187.63;;;4.68;90.73
20027;BME280;10174;42.688;23.344;2022-12-18T01:36:42;96183.72;;;4.64;91.21
20027;BME280;10174;42.688;23.344;2022-12-18T01:39:11;96197.44;;;4.68;90.41
20027;BME280;10174;42.688;23.344;2022-12-18T01:41:38;96203.19;;;4.71;90.25
20027;BME280;10174;42.688;23.344;2022-12-18T01:47:47;96218.53;;;4.56;90.43
20027;BME280;10174;42.688;23.344;2022-12-18T01:50:20;96209.69;;;4.49;91.00
20027;BME280;10174;42.688;23.344;2022-12-18T01:52:51;96211.56;;;4.55;90.67
20027;BME280;10174;42.688;23.344;2022-12-18T01:55:20;96203.97;;;4.38;90.40
20027;BME280;10174;42.688;23.344;2022-12-18T01:57:47;96212.56;;;4.40;90.81
20027;BME280;10174;42.688;23.344;2022-12-18T02:00:17;96217.88;;;4.40;90.53
20027;BME280;10174;42.688;23.344;2022-12-18T02:02:44;96122.81;;;3.81;90.17
20027;BME280;10174;42.688;23.344;2022-12-18T02:05:12;96200.03;;;4.27;90.50
20027;BME280;10174;42.688;23.344;2022-12-18T02:16:52;96194.50;;;4.16;89.37
20027;BME280;10174;42.688;23.344;2022-12-18T02:19:34;96224.59;;;4.23;89.79
20027;BME280;10174;42.688;23.344;2022-12-18T02:22:44;96237.47;;;4.26;89.90
20027;BME280;10174;42.688;23.344;2022-12-18T02:28:00;96160.44;;;3.78;90.00
20027;BME280;10174;42.688;23.344;2022-12-18T02:30:29;96193.41;;;3.97;89.49
20027;BME280;10174;42.688;23.344;2022-12-18T02:32:57;96227.63;;;4.06;89.96
20027;BME280;10174;42.688;23.344;2022-12-18T02:35:27;96219.00;;;4.04;90.26
20027;BME280;10174;42.688;23.344;2022-12-18T02:37:55;96214.88;;;3.95;90.23
20027;BME280;10174;42.688;23.344;2022-12-18T02:40:22;96244.00;;;4.17;90.49
20027;BME280;10174;42.688;23.344;2022-12-18T02:42:48;96253.44;;;4.13;90.40
20027;BME280;10174;42.688;23.344;2022-12-18T02:45:14;96242.72;;;3.99;90.49
20027;BME280;10174;42.688;23.344;2022-12-18T02:47:43;96261.63;;;4.18;90.38
20027;BME280;10174;42.688;23.344;2022-12-18T02:50:18;96260.34;;;4.00;91.17
20027;BME280;10174;42.688;23.344;2022-12-18T03:00:42;96226.38;;;3.96;90.48
20027;BME280;10174;42.688;23.344;2022-12-18T03:03:24;96265.28;;;4.10;90.36
20027;BME280;10174;42.688;23.344;2022-12-18T03:06:00;96266.66;;;3.99;90.64
20027;BME280;10174;42.688;23.344;2022-12-18T03:08:35;96256.41;;;3.96;90.39
20027;BME280;10174;42.688;23.344;2022-12-18T03:11:09;96213.94;;;3.61;90.69
20027;BME280;10174;42.688;23.344;2022-12-18T03:13:38;96251.84;;;3.77;91.35
20027;BME280;10174;42.688;23.344;2022-12-18T03:16:09;96277.09;;;3.94;91.89
20027;BME280;10174;42.688;23.344;2022-12-18T03:18:41;96275.03;;;3.96;91.20
20027;BME280;10174;42.688;23.344;2022-12-18T03:21:10;96245.09;;;3.81;90.48
20027;BME280;10174;42.688;23.344;2022-12-18T03:23:40;96275.91;;;4.03;90.37
20027;BME280;10174;42.688;23.344;2022-12-18T03:26:10;96275.03;;;3.96;90.56
20027;BME280;10174;42.688;23.344;2022-12-18T03:28:41;96282.63;;;4.06;90.58
20027;BME280;10174;42.688;23.344;2022-12-18T03:31:09;96286.09;;;4.00;90.68
20027;BME280;10174;42.688;23.344;2022-12-18T03:33:52;96287.72;;;3.94;90.25
20027;BME280;10174;42.688;23.344;2022-12-18T03:36:18;96167.91;;;3.19;90.31
20027;BME280;10174;42.688;23.344;2022-12-18T03:38:43;96281.94;;;3.84;90.35
20027;BME280;10174;42.688;23.344;2022-12-18T03:41:34;96287.28;;;3.90;89.99
20027;BME280;10174;42.688;23.344;2022-12-18T03:50:03;96319.16;;;3.84;88.04
20027;BME280;10174;42.688;23.344;2022-12-18T03:52:39;96293.69;;;3.68;87.84
20027;BME280;10174;42.688;23.344;2022-12-18T03:55:09;96293.88;;;3.66;87.06
20027;BME280;10174;42.688;23.344;2022-12-18T03:57:35;96303.59;;;3.81;87.53
20027;BME280;10174;42.688;23.344;2022-12-18T04:00:21;96235.03;;;3.34;86.78
20027;BME280;10174;42.688;23.344;2022-12-18T04:02:54;96319.56;;;3.81;87.65
20027;BME280;10174;42.688;23.344;2022-12-18T04:05:21;96314.22;;;3.81;87.58
20027;BME280;10174;42.688;23.344;2022-12-18T04:07:49;96317.94;;;3.86;87.04
20027;BME280;10174;42.688;23.344;2022-12-18T04:10:16;96305.59;;;3.72;87.50
20027;BME280;10174;42.688;23.344;2022-12-18T04:12:42;96317.16;;;3.92;86.77
20027;BME280;10174;42.688;23.344;2022-12-18T04:15:09;96332.53;;;3.97;87.25
20027;BME280;10174;42.688;23.344;2022-12-18T04:17:35;96263.13;;;3.44;86.45
20027;BME280;10174;42.688;23.344;2022-12-18T04:20:00;96326.06;;;3.78;86.05
20027;BME280;10174;42.688;23.344;2022-12-18T04:22:26;96364.09;;;3.79;85.95
20027;BME280;10174;42.688;23.344;2022-12-18T04:24:51;96332.38;;;3.77;85.73
20027;BME280;10174;42.688;23.344;2022-12-18T04:27:16;96346.91;;;3.74;86.03
20027;BME280;10174;42.688;23.344;2022-12-18T04:29:42;96336.22;;;3.68;85.48
20027;BME280;10174;42.688;23.344;2022-12-18T04:32:08;96363.78;;;3.95;84.75
20027;BME280;10174;42.688;23.344;2022-12-18T04:34:33;96346.13;;;3.81;84.87
20027;BME280;10174;42.688;23.344;2022-12-18T04:36:59;96365.22;;;3.91;84.90
20027;BME280;10174;42.688;23.344;2022-12-18T04:39:24;96388.50;;;3.89;85.43
20027;BME280;10174;42.688;23.344;2022-12-18T04:41:50;96352.13;;;3.61;84.73
20027;BME280;10174;42.688;23.344;2022-12-18T04:44:15;96358.53;;;3.67;84.18
20027;BME280;10174;42.688;23.344;2022-12-18T04:46:41;96363.09;;;3.51;84.46
20027;BME280;10174;42.688;23.344;2022-12-18T04:49:06;96387.31;;;3.63;84.55
20027;BME280;10174;42.688;23.344;2022-12-18T04:51:31;96388.56;;;3.67;84.36
20027;BME280;10174;42.688;23.344;2022-12-18T04:53:57;96402.81;;;3.60;83.90
20027;BME280;10174;42.688;23.344;2022-12-18T04:56:23;96400.34;;;3.58;83.98
20027;BME280;10174;42.688;23.344;2022-12-18T04:58:49;96408.31;;;3.58;83.89
20027;BME280;10174;42.688;23.344;2022-12-18T05:01:15;96389.59;;;3.45;83.05
20027;BME280;10174;42.688;23.344;2022-12-18T05:03:42;96405.69;;;3.36;83.00
20027;BME280;10174;42.688;23.344;2022-12-18T05:06:07;96383.69;;;3.21;83.74
20027;BME280;10174;42.688;23.344;2022-12-18T05:08:33;96384.06;;;3.18;83.74
20027;BME280;10174;42.688;23.344;2022-12-18T05:11:08;96410.88;;;3.23;84.00
20027;BME280;10174;42.688;23.344;2022-12-18T05:13:34;96415.66;;;3.34;84.59
20027;BME280;10174;42.688;23.344;2022-12-18T05:16:00;96302.41;;;2.55;83.93
20027;BME280;10174;42.688;23.344;2022-12-18T05:18:26;96397.34;;;3.18;84.04
20027;BME280;10174;42.688;23.344;2022-12-18T05:20:53;96401.63;;;3.19;83.60
20027;BME280;10174;42.688;23.344;2022-12-18T05:23:19;96407.47;;;3.08;84.46
20027;BME280;10174;42.688;23.344;2022-12-18T05:25:51;96437.69;;;3.28;84.78
20027;BME280;10174;42.688;23.344;2022-12-18T05:28:16;96390.78;;;2.92;84.38
20027;BME280;10174;42.688;23.344;2022-12-18T05:30:42;96442.38;;;3.26;84.83
20027;BME280;10174;42.688;23.344;2022-12-18T05:33:07;96443.31;;;3.18;84.93
20027;BME280;10174;42.688;23.344;2022-12-18T05:35:32;96376.78;;;2.83;84.00
20027;BME280;10174;42.688;23.344;2022-12-18T05:37:58;96407.22;;;3.02;84.30
20027;BME280;10174;42.688;23.344;2022-12-18T05:40:23;96370.19;;;2.79;83.96
20027;BME280;10174;42.688;23.344;2022-12-18T05:42:48;96451.22;;;3.12;83.98
20027;BME280;10174;42.688;23.344;2022-12-18T05:45:14;96434.91;;;2.93;83.19
20027;BME280;10174;42.688;23.344;2022-12-18T05:47:39;96466.66;;;3.23;82.76
20027;BME280;10174;42.688;23.344;2022-12-18T05:50:05;96445.41;;;3.23;82.88
20027;BME280;10174;42.688;23.344;2022-12-18T05:52:32;96465.53;;;3.32;83.06
20027;BME280;10174;42.688;23.344;2022-12-18T05:54:57;96421.88;;;2.98;82.08
20027;BME280;10174;42.688;23.344;2022-12-18T05:57:24;96446.66;;;3.06;82.24
20027;BME280;10174;42.688;23.344;2022-12-18T05:59:49;96479.31;;;3.21;82.45
20027;BME280;10174;42.688;23.344;2022-12-18T06:02:14;96470.19;;;3.09;82.80
20027;BME280;10174;42.688;23.344;2022-12-18T06:04:40;96470.44;;;3.14;82.22
20027;BME280;10174;42.688;23.344;2022-12-18T06:07:05;96482.06;;;3.13;82.97
20027;BME280;10174;42.688;23.344;2022-12-18T06:09:31;96455.09;;;2.94;82.90
20027;BME280;10174;42.688;23.344;2022-12-18T06:11:57;96463.41;;;3.06;82.58
20027;BME280;10174;42.688;23.344;2022-12-18T06:14:22;96452.09;;;2.97;83.10
20027;BME280;10174;42.688;23.344;2022-12-18T06:16:50;96449.72;;;3.02;82.98
20027;BME280;10174;42.688;23.344;2022-12-18T06:19:16;96346.94;;;2.23;82.94
20027;BME280;10174;42.688;23.344;2022-12-18T06:21:42;96504.06;;;3.07;82.98
20027;BME280;10174;42.688;23.344;2022-12-18T06:24:07;96488.50;;;3.03;83.48
20027;BME280;10174;42.688;23.344;2022-12-18T06:26:33;96492.44;;;3.08;82.93
20027;BME280;10174;42.688;23.344;2022-12-18T06:28:59;96498.38;;;3.10;83.15
20027;BME280;10174;42.688;23.344;2022-12-18T06:31:25;96466.44;;;3.03;82.52
20027;BME280;10174;42.688;23.344;2022-12-18T06:33:50;96489.78;;;3.08;83.04
20027;BME280;10174;42.688;23.344;2022-12-18T06:36:16;96497.78;;;3.29;81.41
20027;BME280;10174;42.688;23.344;2022-12-18T06:38:43;96519.78;;;3.23;81.63
20027;BME280;10174;42.688;23.344;2022-12-18T06:41:11;96500.78;;;3.05;82.36
20027;BME280;10174;42.688;23.344;2022-12-18T06:43:36;96502.53;;;2.97;82.52
20027;BME280;10174;42.688;23.344;2022-12-18T06:46:03;96527.22;;;3.13;82.90
20027;BME280;10174;42.688;23.344;2022-12-18T06:48:29;96526.94;;;3.23;82.27
20027;BME280;10174;42.688;23.344;2022-12-18T06:50:55;96521.16;;;3.19;82.14
20027;BME280;10174;42.688;23.344;2022-12-18T06:53:20;96512.69;;;3.09;81.01
20027;BME280;10174;42.688;23.344;2022-12-18T06:55:45;96526.75;;;3.24;81.20
20027;BME280;10174;42.688;23.344;2022-12-18T06:58:11;96521.44;;;3.24;81.25
20027;BME280;10174;42.688;23.344;2022-12-18T07:00:36;96501.75;;;3.18;80.85
20027;BME280;10174;42.688;23.344;2022-12-18T07:03:02;96531.19;;;3.60;79.43
20027;BME280;10174;42.688;23.344;2022-12-18T07:05:27;96538.16;;;3.39;78.04
20027;BME280;10174;42.688;23.344;2022-12-18T07:07:52;96546.88;;;3.33;78.19
20027;BME280;10174;42.688;23.344;2022-12-18T07:10:18;96537.22;;;3.11;77.66
20027;BME280;10174;42.688;23.344;2022-12-18T07:12:44;96542.16;;;3.14;78.36
20027;BME280;10174;42.688;23.344;2022-12-18T07:15:09;96548.06;;;3.31;79.40
20027;BME280;10174;42.688;23.344;2022-12-18T07:17:35;96562.16;;;3.31;78.47
20027;BME280;10174;42.688;23.344;2022-12-18T07:20:00;96550.16;;;3.35;78.51
20027;BME280;10174;42.688;23.344;2022-12-18T07:22:26;96522.00;;;3.19;78.57
20027;BME280;10174;42.688;23.344;2022-12-18T07:24:52;96555.31;;;3.22;79.12
20027;BME280;10174;42.688;23.344;2022-12-18T07:27:17;96478.31;;;2.71;80.03
20027;BME280;10174;42.688;23.344;2022-12-18T07:29:42;96531.47;;;2.92;80.30
20027;BME280;10174;42.688;23.344;2022-12-18T07:32:08;96555.91;;;3.02;80.67
20027;BME280;10174;42.688;23.344;2022-12-18T07:34:33;96559.09;;;3.13;80.13
20027;BME280;10174;42.688;23.344;2022-12-18T07:36:59;96567.91;;;3.13;80.41
20027;BME280;10174;42.688;23.344;2022-12-18T07:39:39;96563.41;;;3.14;80.69
20027;BME280;10174;42.688;23.344;2022-12-18T07:42:04;96547.28;;;3.00;80.04
20027;BME280;10174;42.688;23.344;2022-12-18T07:44:48;96561.22;;;3.02;80.49
20027;BME280;10174;42.688;23.344;2022-12-18T07:47:13;96592.50;;;3.22;80.50
20027;BME280;10174;42.688;23.344;2022-12-18T07:49:39;96515.47;;;2.71;81.17
20027;BME280;10174;42.688;23.344;2022-12-18T07:52:04;96581.13;;;3.28;80.96
20027;BME280;10174;42.688;23.344;2022-12-18T07:54:29;96587.19;;;3.22;80.93
20027;BME280;10174;42.688;23.344;2022-12-18T07:56:55;96575.97;;;2.90;81.84
20027;BME280;10174;42.688;23.344;2022-12-18T07:59:20;96599.66;;;3.07;82.10
20027;BME280;10174;42.688;23.344;2022-12-18T08:01:45;96600.13;;;3.10;82.02
20027;BME280;10174;42.688;23.344;2022-12-18T08:04:11;96590.50;;;2.94;81.79
20027;BME280;10174;42.688;23.344;2022-12-18T08:06:36;96512.63;;;2.57;81.71
20027;BME280;10174;42.688;23.344;2022-12-18T08:09:02;96613.78;;;2.92;82.16
20027;BME280;10174;42.688;23.344;2022-12-18T08:11:28;96588.34;;;2.83;82.76
20027;BME280;10174;42.688;23.344;2022-12-18T08:13:54;96612.13;;;3.21;81.26
20027;BME280;10174;42.688;23.344;2022-12-18T08:16:20;96613.41;;;3.10;81.28
20027;BME280;10174;42.688;23.344;2022-12-18T08:18:46;96605.34;;;3.03;81.29
20027;BME280;10174;42.688;23.344;2022-12-18T08:21:14;96625.59;;;3.05;81.69
20027;BME280;10174;42.688;23.344;2022-12-18T08:23:40;96627.13;;;2.99;82.01
20027;BME280;10174;42.688;23.344;2022-12-18T08:26:06;96633.53;;;2.90;81.84
20027;BME280;10174;42.688;23.344;2022-12-18T08:28:32;96634.84;;;3.09;82.14
20027;BME280;10174;42.688;23.344;2022-12-18T08:30:58;96637.41;;;3.17;81.42
20027;BME280;10174;42.688;23.344;2022-12-18T08:33:23;96616.69;;;2.97;80.68
20027;BME280;10174;42.688;23.344;2022-12-18T08:35:48;96616.06;;;2.95;80.51
20027;BME280;10174;42.688;23.344;2022-12-18T08:38:14;96650.31;;;3.20;80.72
20027;BME280;10174;42.688;23.344;2022-12-18T08:40:39;96623.56;;;3.07;79.67
20027;BME280;10174;42.688;23.344;2022-12-18T08:43:05;96637.03;;;3.20;79.87
20027;BME280;10174;42.688;23.344;2022-12-18T08:45:48;96646.53;;;3.29;79.75
20027;BME280;10174;42.688;23.344;2022-12-18T08:48:14;96632.44;;;3.14;79.46
20027;BME280;10174;42.688;23.344;2022-12-18T08:50:39;96655.16;;;3.31;79.34
20027;BME280;10174;42.688;23.344;2022-12-18T08:53:05;96655.63;;;3.35;79.87
20027;BME280;10174;42.688;23.344;2022-12-18T08:55:30;96636.34;;;3.48;79.01
20027;BME280;10174;42.688;23.344;2022-12-18T08:57:56;96640.00;;;3.62;77.41
20027;BME280;10174;42.688;23.344;2022-12-18T09:00:21;96653.41;;;3.38;77.50
20027;BME280;10174;42.688;23.344;2022-12-18T09:02:46;96638.63;;;3.51;77.65
20027;BME280;10174;42.688;23.344;2022-12-18T09:05:12;96650.19;;;3.58;76.53
20027;BME280;10174;42.688;23.344;2022-12-18T09:07:37;96629.88;;;3.35;75.93
20027;BME280;10174;42.688;23.344;2022-12-18T09:10:03;96620.09;;;3.06;76.33
20027;BME280;10174;42.688;23.344;2022-12-18T09:12:29;96651.50;;;3.32;76.10
20027;BME280;10174;42.688;23.344;2022-12-18T09:14:54;96643.06;;;3.14;76.21
20027;BME280;10174;42.688;23.344;2022-12-18T09:17:21;96652.03;;;3.28;75.86
20027;BME280;10174;42.688;23.344;2022-12-18T09:19:46;96636.34;;;3.48;75.60
20027;BME280;10174;42.688;23.344;2022-12-18T09:22:12;96623.25;;;3.46;74.31
20027;BME280;10174;42.688;23.344;2022-12-18T09:24:37;96560.00;;;3.05;74.37
20027;BME280;10174;42.688;23.344;2022-12-18T09:27:02;96644.75;;;3.66;73.56
20027;BME280;10174;42.688;23.344;2022-12-18T09:29:28;96565.94;;;3.22;73.04
20027;BME280;10174;42.688;23.344;2022-12-18T09:31:53;96582.13;;;3.42;73.08
20027;BME280;10174;42.688;23.344;2022-12-18T09:34:19;96649.50;;;3.71;73.02
20027;BME280;10174;42.688;23.344;2022-12-18T09:36:47;96647.94;;;3.77;73.52
20027;BME280;10174;42.688;23.344;2022-12-18T09:39:13;96552.66;;;3.22;73.77
20027;BME280;10174;42.688;23.344;2022-12-18T09:41:47;96643.66;;;3.97;73.12
20027;BME280;10174;42.688;23.344;2022-12-18T09:44:29;96653.06;;;3.78;72.91
20027;BME280;10174;42.688;23.344;2022-12-18T09:49:41;96628.56;;;3.83;72.39
20027;BME280;10174;42.688;23.344;2022-12-18T09:52:21;96643.72;;;4.04;73.36
20027;BME280;10174;42.688;23.344;2022-12-18T09:57:40;96641.59;;;4.14;72.22
20027;BME280;10174;42.688;23.344;2022-12-18T10:02:39;96605.75;;;3.52;72.24
20027;BME280;10174;42.688;23.344;2022-12-18T10:05:17;96642.25;;;3.80;72.29
20027;BME280;10174;42.688;23.344;2022-12-18T10:13:40;96645.19;;;3.85;71.78
20027;BME280;10174;42.688;23.344;2022-12-18T10:16:17;96649.88;;;4.04;69.99
20027;BME280;10174;42.688;23.344;2022-12-18T10:21:58;96644.09;;;3.79;70.51
20027;BME280;10174;42.688;23.344;2022-12-18T10:25:13;96654.03;;;4.14;70.34
20027;BME280;10174;42.688;23.344;2022-12-18T10:27:30;96584.41;;;4.03;69.28
20027;BME280;10174;42.688;23.344;2022-12-18T10:29:56;96596.66;;;4.26;69.03
20027;BME280;10174;42.688;23.344;2022-12-18T10:32:28;96505.25;;;3.84;68.85
20027;BME280;10174;42.688;23.344;2022-12-18T10:34:56;96640.63;;;4.72;68.84
20027;BME280;10174;42.688;23.344;2022-12-18T10:37:26;96643.66;;;4.40;69.34
20027;BME280;10174;42.688;23.344;2022-12-18T10:40:11;96638.06;;;4.57;70.05
20027;BME280;10174;42.688;23.344;2022-12-18T10:42:37;96639.16;;;4.41;69.49
20027;BME280;10174;42.688;23.344;2022-12-18T10:45:12;96656.81;;;4.49;70.15
20027;BME280;10174;42.688;23.344;2022-12-18T10:47:48;96644.66;;;4.39;69.36
20027;BME280;10174;42.688;23.344;2022-12-18T10:50:35;96566.03;;;4.08;70.31
20027;BME280;10174;42.688;23.344;2022-12-18T10:53:03;96593.78;;;4.49;69.63
20027;BME280;10174;42.688;23.344;2022-12-18T10:55:34;96625.63;;;4.64;69.18
20027;BME280;10174;42.688;23.344;2022-12-18T10:58:34;96632.81;;;4.70;69.22
20027;BME280;10174;42.688;23.344;2022-12-18T11:01:17;96632.75;;;4.57;70.14
20027;BME280;10174;42.688;23.344;2022-12-18T11:06:23;96635.81;;;4.32;70.84
20027;BME280;10174;42.688;23.344;2022-12-18T11:09:21;96638.06;;;4.57;70.50
20027;BME280;10174;42.688;23.344;2022-12-18T11:11:56;96643.16;;;4.80;69.45
20027;BME280;10174;42.688;23.344;2022-12-18T11:14:27;96619.66;;;4.62;69.67
20027;BME280;10174;42.688;23.344;2022-12-18T11:16:55;96638.31;;;4.90;68.27
20027;BME280;10174;42.688;23.344;2022-12-18T11:19:34;96630.13;;;4.92;67.63
20027;BME280;10174;42.688;23.344;2022-12-18T11:22:02;96540.03;;;4.32;67.91
20027;BME280;10174;42.688;23.344;2022-12-18T11:24:34;96561.69;;;4.29;68.68
20027;BME280;10174;42.688;23.344;2022-12-18T11:27:02;96646.81;;;4.79;67.72
20027;BME280;10174;42.688;23.344;2022-12-18T11:29:39;96632.47;;;4.52;68.34
20027;BME280;10174;42.688;23.344;2022-12-18T11:34:41;96646.81;;;4.29;70.19
20027;BME280;10174;42.688;23.344;2022-12-18T11:37:11;96648.47;;;4.30;69.54
20027;BME280;10174;42.688;23.344;2022-12-18T11:40:02;96640.06;;;4.26;69.60
20027;BME280;10174;42.688;23.344;2022-12-18T11:42:39;96582.50;;;3.97;69.31
20027;BME280;10174;42.688;23.344;2022-12-18T11:48:03;96647.31;;;4.39;70.32
20027;BME280;10174;42.688;23.344;2022-12-18T11:53:01;96629.63;;;4.25;68.90
20027;BME280;10174;42.688;23.344;2022-12-18T11:55:39;96648.72;;;4.57;68.27
20027;BME280;10174;42.688;23.344;2022-12-18T12:15:13;96627.06;;;4.17;69.95
20027;BME280;10174;42.688;23.344;2022-12-18T12:17:46;96639.22;;;4.26;70.47
20027;BME280;10174;42.688;23.344;2022-12-18T12:23:15;96639.09;;;4.34;69.69
20027;BME280;10174;42.688;23.344;2022-12-18T12:25:53;96636.25;;;4.36;69.98
20027;BME280;10174;42.688;23.344;2022-12-18T12:34:25;96648.84;;;4.49;69.22
20027;BME280;10174;42.688;23.344;2022-12-18T12:39:44;96655.19;;;4.48;69.42
20027;BME280;10174;42.688;23.344;2022-12-18T12:42:17;96634.41;;;4.36;69.43
20027;BME280;10174;42.688;23.344;2022-12-18T12:45:05;96644.44;;;4.34;69.35
20027;BME280;10174;42.688;23.344;2022-12-18T12:47:36;96625.63;;;4.36;69.77
20027;BME280;10174;42.688;23.344;2022-12-18T12:50:05;96618.44;;;4.36;68.95
20027;BME280;10174;42.688;23.344;2022-12-18T12:52:39;96644.25;;;4.64;68.79
20027;BME280;10174;42.688;23.344;2022-12-18T12:55:33;96660.38;;;4.56;69.77
20027;BME280;10174;42.688;23.344;2022-12-18T12:58:10;96628.84;;;4.31;69.18
20027;BME280;10174;42.688;23.344;2022-12-18T13:00:49;96652.97;;;4.30;69.89
20027;BME280;10174;42.688;23.344;2022-12-18T13:09:01;96669.28;;;4.41;70.72
20027;BME280;10174;42.688;23.344;2022-12-18T13:11:38;96672.03;;;4.33;70.48
20027;BME280;10174;42.688;23.344;2022-12-18T13:19:49;96661.63;;;3.95;69.96
20027;BME280;10174;42.688;23.344;2022-12-18T13:22:28;96659.63;;;3.97;70.71
20027;BME280;10174;42.688;23.344;2022-12-18T13:24:55;96689.53;;;4.21;70.23
20027;BME280;10174;42.688;23.344;2022-12-18T13:30:55;96614.84;;;3.79;70.33
20027;BME280;10174;42.688;23.344;2022-12-18T13:33:40;96685.22;;;4.20;70.71
20027;BME280;10174;42.688;23.344;2022-12-18T13:38:38;96583.59;;;3.66;69.73
20027;BME280;10174;42.688;23.344;2022-12-18T13:41:25;96693.91;;;4.28;70.51
20027;BME280;10174;42.688;23.344;2022-12-18T13:43:53;96696.00;;;4.33;69.76
20027;BME280;10174;42.688;23.344;2022-12-18T13:46:44;96693.91;;;4.28;70.47
20027;BME280;10174;42.688;23.344;2022-12-18T13:51:49;96712.72;;;4.27;70.53
20027;BME280;10174;42.688;23.344;2022-12-18T13:56:44;96702.50;;;4.31;70.30
20027;BME280;10174;42.688;23.344;2022-12-18T13:59:13;96724.41;;;4.48;70.25
20027;BME280;10174;42.688;23.344;2022-12-18T14:02:00;96719.06;;;4.48;70.46
20027;BME280;10174;42.688;23.344;2022-12-18T14:04:31;96709.44;;;4.46;70.20
20027;BME280;10174;42.688;23.344;2022-12-18T14:07:05;96703.72;;;4.50;69.99
20027;BME280;10174;42.688;23.344;2022-12-18T14:09:37;96708.88;;;4.51;69.63
20027;BME280;10174;42.688;23.344;2022-12-18T14:12:05;96697.84;;;4.54;68.24
20027;BME280;10174;42.688;23.344;2022-12-18T14:14:51;96728.13;;;4.53;68.19
20027;BME280;10174;42.688;23.344;2022-12-18T14:17:17;96721.78;;;4.54;68.41
20027;BME280;10174;42.688;23.344;2022-12-18T14:19:45;96727.69;;;4.50;68.12
20027;BME280;10174;42.688;23.344;2022-12-18T14:22:17;96730.88;;;4.38;67.99
20027;BME280;10174;42.688;23.344;2022-12-18T14:24:43;96719.59;;;4.21;67.84
20027;BME280;10174;42.688;23.344;2022-12-18T14:27:21;96732.63;;;4.31;68.29
20027;BME280;10174;42.688;23.344;2022-12-18T14:29:47;96679.94;;;3.83;68.74
20027;BME280;10174;42.688;23.344;2022-12-18T14:32:17;96709.50;;;3.95;68.17
20027;BME280;10174;42.688;23.344;2022-12-18T14:34:48;96699.44;;;3.75;69.26
20027;BME280;10174;42.688;23.344;2022-12-18T14:37:17;96733.41;;;4.10;68.81
20027;BME280;10174;42.688;23.344;2022-12-18T14:42:18;96734.31;;;4.17;68.00
20027;BME280;10174;42.688;23.344;2022-12-18T14:44:44;96658.53;;;3.55;68.84
20027;BME280;10174;42.688;23.344;2022-12-18T14:47:15;96724.88;;;4.15;67.48
20027;BME280;10174;42.688;23.344;2022-12-18T14:49:41;96649.06;;;3.67;68.13
20027;BME280;10174;42.688;23.344;2022-12-18T14:52:27;96731.47;;;4.19;67.28
20027;BME280;10174;42.688;23.344;2022-12-18T14:54:53;96709.69;;;3.93;67.04
20027;BME280;10174;42.688;23.344;2022-12-18T14:57:30;96665.59;;;3.48;66.66
20027;BME280;10174;42.688;23.344;2022-12-18T15:00:10;96736.28;;;3.93;66.38
20027;BME280;10174;42.688;23.344;2022-12-18T15:02:40;96748.13;;;3.91;66.63